sensor_id;sensor_type;location;lat;lon;timestamp;P1;durP1;ratioP1;P2;durP2;ratioP2
21110;SDS011;10713;51.912;4.494;2023-07-16T00:01:54;3.95;;;1.88;;
21110;SDS011;10713;51.912;4.494;2023-07-16T00:04:19;7.65;;;1.67;;
21110;SDS011;10713;51.912;4.494;2023-07-16T00:06:45;6.18;;;2.38;;
21110;SDS011;10713;51.912;4.494;2023-07-16T00:09:11;6.57;;;2.00;;
21110;SDS011;10713;51.912;4.494;2023-07-16T00:11:36;15.15;;;2.20;;
21110;SDS011;10713;51.912;4.494;2023-07-16T00:14:01;5.25;;;2.28;;
21110;SDS011;10713;51.912;4.494;2023-07-16T00:16:27;7.70;;;1.65;;
21110;SDS011;10713;51.912;4.494;2023-07-16T00:18:53;11.35;;;2.42;;
21110;SDS011;10713;51.912;4.494;2023-07-16T00:21:18;7.93;;;1.98;;
21110;SDS011;10713;51.912;4.494;2023-07-16T00:23:44;5.57;;;2.40;;
21110;SDS011;10713;51.912;4.494;2023-07-16T00:26:09;6.28;;;2.17;;
21110;SDS011;10713;51.912;4.494;2023-07-16T00:28:34;7.20;;;1.98;;
21110;SDS011;10713;51.912;4.494;2023-07-16T00:31:00;4.70;;;2.00;;
21110;SDS011;10713;51.912;4.494;2023-07-16T00:33:26;8.10;;;2.50;;
21110;SDS011;10713;51.912;4.494;2023-07-16T00:35:51;11.38;;;2.63;;
21110;SDS011;10713;51.912;4.494;2023-07-16T00:38:17;6.63;;;2.10;;
21110;SDS011;10713;51.912;4.494;2023-07-16T00:40:43;10.02;;;2.25;;
21110;SDS011;10713;51.912;4.494;2023-07-16T00:43:08;7.78;;;2.25;;
21110;SDS011;10713;51.912;4.494;2023-07-16T00:45:34;8.88;;;2.42;;
21110;SDS011;10713;51.912;4.494;2023-07-16T00:47:59;4.47;;;2.30;;
21110;SDS011;10713;51.912;4.494;2023-07-16T00:50:25;8.55;;;2.25;;
21110;SDS011;10713;51.912;4.494;2023-07-16T00:52:50;6.50;;;2.35;;
21110;SDS011;10713;51.912;4.494;2023-07-16T00:55:16;8.43;;;2.40;;
21110;SDS011;10713;51.912;4.494;2023-07-16T00:57:41;6.47;;;2.22;;
21110;SDS011;10713;51.912;4.494;2023-07-16T01:00:07;9.48;;;2.85;;
21110;SDS011;10713;51.912;4.494;2023-07-16T01:02:34;5.82;;;2.30;;
21110;SDS011;10713;51.912;4.494;2023-07-16T01:05:00;13.75;;;2.85;;
21110;SDS011;10713;51.912;4.494;2023-07-16T01:07:26;9.00;;;3.22;;
21110;SDS011;10713;51.912;4.494;2023-07-16T01:09:54;11.68;;;2.85;;
21110;SDS011;10713;51.912;4.494;2023-07-16T01:12:21;8.40;;;2.75;;
21110;SDS011;10713;51.912;4.494;2023-07-16T01:14:47;8.63;;;2.65;;
21110;SDS011;10713;51.912;4.494;2023-07-16T01:17:13;10.75;;;2.53;;
21110;SDS011;10713;51.912;4.494;2023-07-16T01:19:38;9.73;;;2.92;;
21110;SDS011;10713;51.912;4.494;2023-07-16T01:24:46;15.10;;;3.75;;
21110;SDS011;10713;51.912;4.494;2023-07-16T01:30:29;19.38;;;4.50;;
21110;SDS011;10713;51.912;4.494;2023-07-16T01:32:56;5.72;;;3.03;;
21110;SDS011;10713;51.912;4.494;2023-07-16T01:35:22;10.20;;;3.00;;
21110;SDS011;10713;51.912;4.494;2023-07-16T01:37:48;8.95;;;3.35;;
21110;SDS011;10713;51.912;4.494;2023-07-16T01:40:13;11.95;;;3.53;;
21110;SDS011;10713;51.912;4.494;2023-07-16T01:42:39;12.95;;;3.75;;
21110;SDS011;10713;51.912;4.494;2023-07-16T01:45:05;12.07;;;3.35;;
21110;SDS011;10713;51.912;4.494;2023-07-16T01:50:11;9.90;;;3.45;;
21110;SDS011;10713;51.912;4.494;2023-07-16T01:52:37;13.45;;;3.15;;
21110;SDS011;10713;51.912;4.494;2023-07-16T01:55:02;10.65;;;3.08;;
21110;SDS011;10713;51.912;4.494;2023-07-16T01:57:27;6.22;;;2.80;;
21110;SDS011;10713;51.912;4.494;2023-07-16T01:59:53;16.75;;;3.38;;
21110;SDS011;10713;51.912;4.494;2023-07-16T02:02:18;6.65;;;3.10;;
21110;SDS011;10713;51.912;4.494;2023-07-16T02:04:43;10.50;;;3.30;;
21110;SDS011;10713;51.912;4.494;2023-07-16T02:07:09;14.05;;;3.83;;
21110;SDS011;10713;51.912;4.494;2023-07-16T02:09:34;7.57;;;3.17;;
21110;SDS011;10713;51.912;4.494;2023-07-16T02:12:00;7.43;;;3.28;;
21110;SDS011;10713;51.912;4.494;2023-07-16T02:14:25;9.55;;;3.60;;
21110;SDS011;10713;51.912;4.494;2023-07-16T02:16:51;5.55;;;2.75;;
21110;SDS011;10713;51.912;4.494;2023-07-16T02:19:16;13.00;;;3.58;;
21110;SDS011;10713;51.912;4.494;2023-07-16T02:21:41;8.15;;;3.47;;
21110;SDS011;10713;51.912;4.494;2023-07-16T02:24:07;10.38;;;2.90;;
21110;SDS011;10713;51.912;4.494;2023-07-16T02:26:32;10.27;;;3.47;;
21110;SDS011;10713;51.912;4.494;2023-07-16T02:28:57;6.93;;;3.25;;
21110;SDS011;10713;51.912;4.494;2023-07-16T02:31:24;12.48;;;3.35;;
21110;SDS011;10713;51.912;4.494;2023-07-16T02:33:49;12.13;;;3.58;;
21110;SDS011;10713;51.912;4.494;2023-07-16T02:36:15;9.80;;;3.25;;
21110;SDS011;10713;51.912;4.494;2023-07-16T02:38:40;8.73;;;3.42;;
21110;SDS011;10713;51.912;4.494;2023-07-16T02:41:05;10.38;;;3.28;;
21110;SDS011;10713;51.912;4.494;2023-07-16T02:43:31;12.10;;;3.63;;
21110;SDS011;10713;51.912;4.494;2023-07-16T02:45:56;8.57;;;2.80;;
21110;SDS011;10713;51.912;4.494;2023-07-16T02:48:21;9.38;;;3.30;;
21110;SDS011;10713;51.912;4.494;2023-07-16T02:50:47;5.57;;;2.80;;
21110;SDS011;10713;51.912;4.494;2023-07-16T02:53:12;11.88;;;3.10;;
21110;SDS011;10713;51.912;4.494;2023-07-16T02:55:38;9.40;;;2.88;;
21110;SDS011;10713;51.912;4.494;2023-07-16T02:58:03;10.65;;;3.60;;
21110;SDS011;10713;51.912;4.494;2023-07-16T03:00:32;9.50;;;2.75;;
21110;SDS011;10713;51.912;4.494;2023-07-16T03:02:57;9.45;;;2.83;;
21110;SDS011;10713;51.912;4.494;2023-07-16T03:05:24;7.40;;;2.33;;
21110;SDS011;10713;51.912;4.494;2023-07-16T03:07:50;6.20;;;2.90;;
21110;SDS011;10713;51.912;4.494;2023-07-16T03:10:15;7.60;;;2.38;;
21110;SDS011;10713;51.912;4.494;2023-07-16T03:12:41;9.50;;;2.83;;
21110;SDS011;10713;51.912;4.494;2023-07-16T03:15:06;6.72;;;2.67;;
21110;SDS011;10713;51.912;4.494;2023-07-16T03:17:32;17.33;;;3.22;;
21110;SDS011;10713;51.912;4.494;2023-07-16T03:19:57;8.60;;;2.97;;
21110;SDS011;10713;51.912;4.494;2023-07-16T03:22:23;6.88;;;3.33;;
21110;SDS011;10713;51.912;4.494;2023-07-16T03:24:48;13.45;;;2.75;;
21110;SDS011;10713;51.912;4.494;2023-07-16T03:27:13;9.20;;;3.20;;
21110;SDS011;10713;51.912;4.494;2023-07-16T03:29:39;10.30;;;3.95;;
21110;SDS011;10713;51.912;4.494;2023-07-16T03:32:04;11.32;;;3.28;;
21110;SDS011;10713;51.912;4.494;2023-07-16T03:34:30;9.80;;;3.33;;
21110;SDS011;10713;51.912;4.494;2023-07-16T03:36:55;9.10;;;3.28;;
21110;SDS011;10713;51.912;4.494;2023-07-16T03:39:20;10.60;;;3.42;;
21110;SDS011;10713;51.912;4.494;2023-07-16T03:41:46;10.45;;;3.22;;
21110;SDS011;10713;51.912;4.494;2023-07-16T03:44:11;12.40;;;3.47;;
21110;SDS011;10713;51.912;4.494;2023-07-16T03:46:36;15.18;;;3.20;;
21110;SDS011;10713;51.912;4.494;2023-07-16T03:49:02;14.45;;;3.25;;
21110;SDS011;10713;51.912;4.494;2023-07-16T03:51:27;7.97;;;3.17;;
21110;SDS011;10713;51.912;4.494;2023-07-16T03:53:53;7.72;;;3.30;;
21110;SDS011;10713;51.912;4.494;2023-07-16T03:56:18;8.43;;;3.28;;
21110;SDS011;10713;51.912;4.494;2023-07-16T03:58:43;7.93;;;3.33;;
21110;SDS011;10713;51.912;4.494;2023-07-16T04:01:09;18.75;;;3.25;;
21110;SDS011;10713;51.912;4.494;2023-07-16T04:03:34;9.57;;;3.58;;
21110;SDS011;10713;51.912;4.494;2023-07-16T04:06:00;10.50;;;2.95;;
21110;SDS011;10713;51.912;4.494;2023-07-16T04:08:29;12.23;;;3.20;;
21110;SDS011;10713;51.912;4.494;2023-07-16T04:10:55;9.77;;;3.70;;
21110;SDS011;10713;51.912;4.494;2023-07-16T04:13:20;8.38;;;3.00;;
21110;SDS011;10713;51.912;4.494;2023-07-16T04:15:46;8.68;;;3.35;;
21110;SDS011;10713;51.912;4.494;2023-07-16T04:18:11;8.50;;;3.67;;
21110;SDS011;10713;51.912;4.494;2023-07-16T04:20:36;10.63;;;3.60;;
21110;SDS011;10713;51.912;4.494;2023-07-16T04:23:02;8.75;;;3.55;;
21110;SDS011;10713;51.912;4.494;2023-07-16T04:25:27;11.32;;;3.97;;
21110;SDS011;10713;51.912;4.494;2023-07-16T04:27:52;10.50;;;3.58;;
21110;SDS011;10713;51.912;4.494;2023-07-16T04:30:18;8.20;;;3.17;;
21110;SDS011;10713;51.912;4.494;2023-07-16T04:32:43;8.82;;;3.58;;
21110;SDS011;10713;51.912;4.494;2023-07-16T04:35:08;8.38;;;3.40;;
21110;SDS011;10713;51.912;4.494;2023-07-16T04:37:34;11.15;;;3.50;;
21110;SDS011;10713;51.912;4.494;2023-07-16T04:39:59;13.90;;;3.92;;
21110;SDS011;10713;51.912;4.494;2023-07-16T04:42:24;7.45;;;3.13;;
21110;SDS011;10713;51.912;4.494;2023-07-16T04:44:50;9.82;;;3.67;;
21110;SDS011;10713;51.912;4.494;2023-07-16T04:47:15;11.57;;;3.80;;
21110;SDS011;10713;51.912;4.494;2023-07-16T04:49:40;8.98;;;3.70;;
21110;SDS011;10713;51.912;4.494;2023-07-16T04:52:06;8.00;;;3.47;;
21110;SDS011;10713;51.912;4.494;2023-07-16T04:54:35;8.07;;;3.17;;
21110;SDS011;10713;51.912;4.494;2023-07-16T04:57:01;8.25;;;3.22;;
21110;SDS011;10713;51.912;4.494;2023-07-16T04:59:26;9.68;;;3.60;;
21110;SDS011;10713;51.912;4.494;2023-07-16T05:01:51;9.30;;;3.60;;
21110;SDS011;10713;51.912;4.494;2023-07-16T05:04:17;9.13;;;3.42;;
21110;SDS011;10713;51.912;4.494;2023-07-16T05:06:42;7.50;;;3.25;;
21110;SDS011;10713;51.912;4.494;2023-07-16T05:09:07;9.10;;;3.25;;
21110;SDS011;10713;51.912;4.494;2023-07-16T05:11:33;7.60;;;3.03;;
21110;SDS011;10713;51.912;4.494;2023-07-16T05:13:58;6.25;;;3.40;;
21110;SDS011;10713;51.912;4.494;2023-07-16T05:16:23;10.77;;;2.97;;
21110;SDS011;10713;51.912;4.494;2023-07-16T05:18:49;10.05;;;3.25;;
21110;SDS011;10713;51.912;4.494;2023-07-16T05:21:14;5.47;;;3.20;;
21110;SDS011;10713;51.912;4.494;2023-07-16T05:23:39;7.95;;;3.10;;
21110;SDS011;10713;51.912;4.494;2023-07-16T05:26:05;7.35;;;3.33;;
21110;SDS011;10713;51.912;4.494;2023-07-16T05:28:30;12.25;;;3.92;;
21110;SDS011;10713;51.912;4.494;2023-07-16T05:30:59;8.60;;;2.97;;
21110;SDS011;10713;51.912;4.494;2023-07-16T05:33:25;7.80;;;3.15;;
21110;SDS011;10713;51.912;4.494;2023-07-16T05:35:50;7.28;;;3.22;;
21110;SDS011;10713;51.912;4.494;2023-07-16T05:38:16;4.93;;;2.90;;
21110;SDS011;10713;51.912;4.494;2023-07-16T05:40:41;7.40;;;3.30;;
21110;SDS011;10713;51.912;4.494;2023-07-16T05:43:06;10.33;;;3.03;;
21110;SDS011;10713;51.912;4.494;2023-07-16T05:45:32;7.97;;;3.40;;
21110;SDS011;10713;51.912;4.494;2023-07-16T05:47:57;11.50;;;3.73;;
21110;SDS011;10713;51.912;4.494;2023-07-16T05:50:22;12.60;;;4.13;;
21110;SDS011;10713;51.912;4.494;2023-07-16T05:52:48;7.80;;;3.30;;
21110;SDS011;10713;51.912;4.494;2023-07-16T05:55:13;9.48;;;3.60;;
21110;SDS011;10713;51.912;4.494;2023-07-16T05:57:39;8.13;;;4.20;;
21110;SDS011;10713;51.912;4.494;2023-07-16T06:00:05;7.80;;;3.50;;
21110;SDS011;10713;51.912;4.494;2023-07-16T06:02:32;10.25;;;3.80;;
21110;SDS011;10713;51.912;4.494;2023-07-16T06:04:57;9.43;;;4.28;;
21110;SDS011;10713;51.912;4.494;2023-07-16T06:07:22;12.50;;;3.33;;
21110;SDS011;10713;51.912;4.494;2023-07-16T06:09:48;7.10;;;3.30;;
21110;SDS011;10713;51.912;4.494;2023-07-16T06:12:13;6.78;;;3.70;;
21110;SDS011;10713;51.912;4.494;2023-07-16T06:14:39;6.40;;;3.05;;
21110;SDS011;10713;51.912;4.494;2023-07-16T06:17:04;7.55;;;3.53;;
21110;SDS011;10713;51.912;4.494;2023-07-16T06:19:30;7.32;;;3.42;;
21110;SDS011;10713;51.912;4.494;2023-07-16T06:21:55;8.65;;;3.55;;
21110;SDS011;10713;51.912;4.494;2023-07-16T06:24:21;8.65;;;2.97;;
21110;SDS011;10713;51.912;4.494;2023-07-16T06:26:46;9.57;;;3.65;;
21110;SDS011;10713;51.912;4.494;2023-07-16T06:29:12;10.38;;;3.75;;
21110;SDS011;10713;51.912;4.494;2023-07-16T06:31:38;8.05;;;3.05;;
21110;SDS011;10713;51.912;4.494;2023-07-16T06:34:04;8.43;;;3.75;;
21110;SDS011;10713;51.912;4.494;2023-07-16T06:36:29;11.35;;;3.15;;
21110;SDS011;10713;51.912;4.494;2023-07-16T06:38:54;10.40;;;3.30;;
21110;SDS011;10713;51.912;4.494;2023-07-16T06:41:20;9.65;;;3.70;;
21110;SDS011;10713;51.912;4.494;2023-07-16T06:43:45;9.35;;;3.45;;
21110;SDS011;10713;51.912;4.494;2023-07-16T06:46:10;11.30;;;3.90;;
21110;SDS011;10713;51.912;4.494;2023-07-16T06:48:35;7.32;;;3.40;;
21110;SDS011;10713;51.912;4.494;2023-07-16T06:51:01;10.05;;;3.72;;
21110;SDS011;10713;51.912;4.494;2023-07-16T06:53:26;9.77;;;3.72;;
21110;SDS011;10713;51.912;4.494;2023-07-16T06:55:52;7.32;;;3.42;;
21110;SDS011;10713;51.912;4.494;2023-07-16T06:58:17;6.90;;;3.35;;
21110;SDS011;10713;51.912;4.494;2023-07-16T07:00:42;8.48;;;3.25;;
21110;SDS011;10713;51.912;4.494;2023-07-16T07:03:11;7.63;;;3.20;;
21110;SDS011;10713;51.912;4.494;2023-07-16T07:05:40;12.00;;;4.25;;
21110;SDS011;10713;51.912;4.494;2023-07-16T07:08:06;9.77;;;4.13;;
21110;SDS011;10713;51.912;4.494;2023-07-16T07:10:31;5.85;;;3.20;;
21110;SDS011;10713;51.912;4.494;2023-07-16T07:12:57;8.95;;;3.58;;
21110;SDS011;10713;51.912;4.494;2023-07-16T07:15:23;9.80;;;4.40;;
21110;SDS011;10713;51.912;4.494;2023-07-16T07:17:48;10.27;;;3.97;;
21110;SDS011;10713;51.912;4.494;2023-07-16T07:20:15;11.30;;;4.25;;
21110;SDS011;10713;51.912;4.494;2023-07-16T07:22:40;7.13;;;3.70;;
21110;SDS011;10713;51.912;4.494;2023-07-16T07:25:05;10.80;;;4.20;;
21110;SDS011;10713;51.912;4.494;2023-07-16T07:27:31;11.10;;;3.85;;
21110;SDS011;10713;51.912;4.494;2023-07-16T07:29:56;13.27;;;4.18;;
21110;SDS011;10713;51.912;4.494;2023-07-16T07:32:22;8.40;;;3.88;;
21110;SDS011;10713;51.912;4.494;2023-07-16T07:34:47;11.95;;;4.00;;
21110;SDS011;10713;51.912;4.494;2023-07-16T07:37:13;7.80;;;3.85;;
21110;SDS011;10713;51.912;4.494;2023-07-16T07:39:38;10.27;;;3.70;;
21110;SDS011;10713;51.912;4.494;2023-07-16T07:42:04;10.73;;;4.05;;
21110;SDS011;10713;51.912;4.494;2023-07-16T07:44:29;10.10;;;3.88;;
21110;SDS011;10713;51.912;4.494;2023-07-16T07:46:55;11.68;;;4.35;;
21110;SDS011;10713;51.912;4.494;2023-07-16T07:49:20;11.30;;;4.07;;
21110;SDS011;10713;51.912;4.494;2023-07-16T07:51:45;11.25;;;4.20;;
21110;SDS011;10713;51.912;4.494;2023-07-16T07:54:14;12.80;;;4.43;;
21110;SDS011;10713;51.912;4.494;2023-07-16T07:56:39;12.38;;;4.05;;
21110;SDS011;10713;51.912;4.494;2023-07-16T07:59:04;8.30;;;4.13;;
21110;SDS011;10713;51.912;4.494;2023-07-16T08:01:30;10.70;;;3.85;;
21110;SDS011;10713;51.912;4.494;2023-07-16T08:03:55;8.40;;;3.40;;
21110;SDS011;10713;51.912;4.494;2023-07-16T08:06:21;10.10;;;4.03;;
21110;SDS011;10713;51.912;4.494;2023-07-16T08:08:46;11.18;;;3.97;;
21110;SDS011;10713;51.912;4.494;2023-07-16T08:11:11;9.20;;;4.03;;
21110;SDS011;10713;51.912;4.494;2023-07-16T08:13:37;10.60;;;4.25;;
21110;SDS011;10713;51.912;4.494;2023-07-16T08:16:02;13.57;;;3.70;;
21110;SDS011;10713;51.912;4.494;2023-07-16T08:18:27;9.75;;;4.00;;
21110;SDS011;10713;51.912;4.494;2023-07-16T08:20:53;8.47;;;3.50;;
21110;SDS011;10713;51.912;4.494;2023-07-16T08:23:18;10.57;;;4.27;;
21110;SDS011;10713;51.912;4.494;2023-07-16T08:25:43;9.38;;;3.33;;
21110;SDS011;10713;51.912;4.494;2023-07-16T08:28:09;9.57;;;3.65;;
21110;SDS011;10713;51.912;4.494;2023-07-16T08:30:35;10.55;;;3.80;;
21110;SDS011;10713;51.912;4.494;2023-07-16T08:33:00;9.07;;;3.95;;
21110;SDS011;10713;51.912;4.494;2023-07-16T08:35:26;10.10;;;4.38;;
21110;SDS011;10713;51.912;4.494;2023-07-16T08:37:51;7.27;;;3.97;;
21110;SDS011;10713;51.912;4.494;2023-07-16T08:40:16;12.35;;;3.80;;
21110;SDS011;10713;51.912;4.494;2023-07-16T08:42:44;10.57;;;4.45;;
21110;SDS011;10713;51.912;4.494;2023-07-16T08:45:10;10.00;;;4.07;;
21110;SDS011;10713;51.912;4.494;2023-07-16T08:47:36;9.90;;;3.95;;
21110;SDS011;10713;51.912;4.494;2023-07-16T08:50:02;12.35;;;3.80;;
21110;SDS011;10713;51.912;4.494;2023-07-16T08:52:28;11.80;;;4.25;;
21110;SDS011;10713;51.912;4.494;2023-07-16T08:54:54;8.15;;;3.75;;
21110;SDS011;10713;51.912;4.494;2023-07-16T08:57:19;7.60;;;4.00;;
21110;SDS011;10713;51.912;4.494;2023-07-16T08:59:47;14.02;;;3.97;;
21110;SDS011;10713;51.912;4.494;2023-07-16T09:02:15;13.07;;;3.58;;
21110;SDS011;10713;51.912;4.494;2023-07-16T09:04:44;8.65;;;4.13;;
21110;SDS011;10713;51.912;4.494;2023-07-16T09:07:12;8.23;;;3.53;;
21110;SDS011;10713;51.912;4.494;2023-07-16T09:09:37;6.50;;;3.30;;
21110;SDS011;10713;51.912;4.494;2023-07-16T09:12:02;9.90;;;3.70;;
21110;SDS011;10713;51.912;4.494;2023-07-16T09:14:28;9.75;;;4.03;;
21110;SDS011;10713;51.912;4.494;2023-07-16T09:16:53;9.15;;;3.85;;
21110;SDS011;10713;51.912;4.494;2023-07-16T09:19:19;9.63;;;3.78;;
21110;SDS011;10713;51.912;4.494;2023-07-16T09:21:46;6.13;;;3.22;;
21110;SDS011;10713;51.912;4.494;2023-07-16T09:24:12;8.38;;;3.05;;
21110;SDS011;10713;51.912;4.494;2023-07-16T09:26:38;6.97;;;2.70;;
21110;SDS011;10713;51.912;4.494;2023-07-16T09:29:06;5.68;;;2.67;;
21110;SDS011;10713;51.912;4.494;2023-07-16T09:31:32;7.72;;;3.17;;
21110;SDS011;10713;51.912;4.494;2023-07-16T09:33:58;10.25;;;3.20;;
21110;SDS011;10713;51.912;4.494;2023-07-16T09:36:26;8.23;;;3.25;;
21110;SDS011;10713;51.912;4.494;2023-07-16T09:38:53;11.70;;;3.58;;
21110;SDS011;10713;51.912;4.494;2023-07-16T09:41:19;7.63;;;3.30;;
21110;SDS011;10713;51.912;4.494;2023-07-16T09:43:46;8.88;;;3.38;;
21110;SDS011;10713;51.912;4.494;2023-07-16T09:46:11;10.63;;;3.80;;
21110;SDS011;10713;51.912;4.494;2023-07-16T09:48:36;8.73;;;3.40;;
21110;SDS011;10713;51.912;4.494;2023-07-16T09:51:02;7.82;;;3.10;;
21110;SDS011;10713;51.912;4.494;2023-07-16T09:53:28;6.95;;;2.95;;
21110;SDS011;10713;51.912;4.494;2023-07-16T09:55:57;5.05;;;2.70;;
21110;SDS011;10713;51.912;4.494;2023-07-16T09:58:24;8.30;;;3.13;;
21110;SDS011;10713;51.912;4.494;2023-07-16T10:00:52;11.00;;;3.40;;
21110;SDS011;10713;51.912;4.494;2023-07-16T10:03:18;10.52;;;3.20;;
21110;SDS011;10713;51.912;4.494;2023-07-16T10:05:43;6.65;;;2.75;;
21110;SDS011;10713;51.912;4.494;2023-07-16T10:08:16;10.02;;;3.53;;
21110;SDS011;10713;51.912;4.494;2023-07-16T10:10:44;7.40;;;3.13;;
21110;SDS011;10713;51.912;4.494;2023-07-16T10:13:11;5.85;;;2.65;;
21110;SDS011;10713;51.912;4.494;2023-07-16T10:15:38;5.68;;;2.30;;
21110;SDS011;10713;51.912;4.494;2023-07-16T10:18:05;7.03;;;3.30;;
21110;SDS011;10713;51.912;4.494;2023-07-16T10:20:34;6.45;;;2.55;;
21110;SDS011;10713;51.912;4.494;2023-07-16T10:23:17;5.45;;;2.83;;
21110;SDS011;10713;51.912;4.494;2023-07-16T10:25:59;5.22;;;2.40;;
21110;SDS011;10713;51.912;4.494;2023-07-16T10:28:26;7.13;;;2.22;;
21110;SDS011;10713;51.912;4.494;2023-07-16T10:30:51;4.95;;;2.08;;
21110;SDS011;10713;51.912;4.494;2023-07-16T10:33:17;5.90;;;2.30;;
21110;SDS011;10713;51.912;4.494;2023-07-16T10:35:44;6.97;;;2.42;;
21110;SDS011;10713;51.912;4.494;2023-07-16T10:38:10;8.80;;;2.30;;
21110;SDS011;10713;51.912;4.494;2023-07-16T10:40:45;7.30;;;2.53;;
21110;SDS011;10713;51.912;4.494;2023-07-16T10:43:11;5.22;;;2.45;;
21110;SDS011;10713;51.912;4.494;2023-07-16T10:45:37;7.28;;;2.72;;
21110;SDS011;10713;51.912;4.494;2023-07-16T10:48:03;7.70;;;2.33;;
21110;SDS011;10713;51.912;4.494;2023-07-16T10:50:31;5.55;;;2.60;;
21110;SDS011;10713;51.912;4.494;2023-07-16T10:52:57;6.60;;;2.38;;
21110;SDS011;10713;51.912;4.494;2023-07-16T10:55:23;5.97;;;2.20;;
21110;SDS011;10713;51.912;4.494;2023-07-16T10:57:50;4.32;;;2.08;;
21110;SDS011;10713;51.912;4.494;2023-07-16T11:00:16;4.90;;;2.05;;
21110;SDS011;10713;51.912;4.494;2023-07-16T11:02:42;5.45;;;2.63;;
21110;SDS011;10713;51.912;4.494;2023-07-16T11:05:12;6.05;;;2.40;;
21110;SDS011;10713;51.912;4.494;2023-07-16T11:07:42;4.30;;;1.92;;
21110;SDS011;10713;51.912;4.494;2023-07-16T11:10:11;5.70;;;1.98;;
21110;SDS011;10713;51.912;4.494;2023-07-16T11:12:37;6.43;;;2.03;;
21110;SDS011;10713;51.912;4.494;2023-07-16T11:15:02;5.05;;;1.80;;
21110;SDS011;10713;51.912;4.494;2023-07-16T11:17:28;5.95;;;2.28;;
21110;SDS011;10713;51.912;4.494;2023-07-16T11:19:54;5.60;;;2.15;;
21110;SDS011;10713;51.912;4.494;2023-07-16T11:22:24;7.10;;;1.80;;
21110;SDS011;10713;51.912;4.494;2023-07-16T11:24:51;5.35;;;1.58;;
21110;SDS011;10713;51.912;4.494;2023-07-16T11:27:18;5.97;;;1.80;;
21110;SDS011;10713;51.912;4.494;2023-07-16T11:29:46;4.90;;;1.85;;
21110;SDS011;10713;51.912;4.494;2023-07-16T11:32:32;4.32;;;1.83;;
21110;SDS011;10713;51.912;4.494;2023-07-16T11:34:59;3.08;;;1.50;;
21110;SDS011;10713;51.912;4.494;2023-07-16T11:37:26;3.53;;;1.45;;
21110;SDS011;10713;51.912;4.494;2023-07-16T11:39:56;5.38;;;1.48;;
21110;SDS011;10713;51.912;4.494;2023-07-16T11:42:36;4.28;;;1.45;;
21110;SDS011;10713;51.912;4.494;2023-07-16T11:45:03;7.63;;;2.03;;
21110;SDS011;10713;51.912;4.494;2023-07-16T11:47:29;9.18;;;1.48;;
21110;SDS011;10713;51.912;4.494;2023-07-16T11:49:55;9.63;;;2.05;;
21110;SDS011;10713;51.912;4.494;2023-07-16T11:52:23;4.00;;;1.63;;
21110;SDS011;10713;51.912;4.494;2023-07-16T11:54:52;5.13;;;1.73;;
21110;SDS011;10713;51.912;4.494;2023-07-16T11:57:18;6.63;;;1.58;;
21110;SDS011;10713;51.912;4.494;2023-07-16T11:59:44;5.55;;;1.60;;
21110;SDS011;10713;51.912;4.494;2023-07-16T12:02:09;3.63;;;1.48;;
21110;SDS011;10713;51.912;4.494;2023-07-16T12:04:35;4.47;;;1.48;;
21110;SDS011;10713;51.912;4.494;2023-07-16T12:07:00;3.93;;;1.80;;
21110;SDS011;10713;51.912;4.494;2023-07-16T12:09:25;4.88;;;1.40;;
21110;SDS011;10713;51.912;4.494;2023-07-16T12:11:51;5.50;;;1.27;;
21110;SDS011;10713;51.912;4.494;2023-07-16T12:14:16;6.47;;;1.53;;
21110;SDS011;10713;51.912;4.494;2023-07-16T12:16:41;5.85;;;1.73;;
21110;SDS011;10713;51.912;4.494;2023-07-16T12:19:08;7.90;;;1.60;;
21110;SDS011;10713;51.912;4.494;2023-07-16T12:21:34;5.85;;;2.13;;
21110;SDS011;10713;51.912;4.494;2023-07-16T12:24:00;4.63;;;1.58;;
21110;SDS011;10713;51.912;4.494;2023-07-16T12:26:25;5.43;;;1.50;;
21110;SDS011;10713;51.912;4.494;2023-07-16T12:28:51;6.57;;;1.60;;
21110;SDS011;10713;51.912;4.494;2023-07-16T12:31:16;8.07;;;2.15;;
21110;SDS011;10713;51.912;4.494;2023-07-16T12:33:42;8.48;;;1.23;;
21110;SDS011;10713;51.912;4.494;2023-07-16T12:36:08;4.55;;;1.50;;
21110;SDS011;10713;51.912;4.494;2023-07-16T12:38:33;3.65;;;1.77;;
21110;SDS011;10713;51.912;4.494;2023-07-16T12:40:59;5.72;;;1.40;;
21110;SDS011;10713;51.912;4.494;2023-07-16T12:43:24;4.78;;;1.45;;
21110;SDS011;10713;51.912;4.494;2023-07-16T12:45:49;16.65;;;3.55;;
21110;SDS011;10713;51.912;4.494;2023-07-16T12:48:15;8.45;;;1.80;;
21110;SDS011;10713;51.912;4.494;2023-07-16T12:50:40;6.32;;;1.52;;
21110;SDS011;10713;51.912;4.494;2023-07-16T12:53:05;7.53;;;2.27;;
21110;SDS011;10713;51.912;4.494;2023-07-16T12:55:31;5.45;;;1.45;;
21110;SDS011;10713;51.912;4.494;2023-07-16T12:57:57;7.78;;;1.55;;
21110;SDS011;10713;51.912;4.494;2023-07-16T13:00:22;4.25;;;1.38;;
21110;SDS011;10713;51.912;4.494;2023-07-16T13:02:47;3.10;;;1.05;;
21110;SDS011;10713;51.912;4.494;2023-07-16T13:05:12;8.03;;;1.30;;
21110;SDS011;10713;51.912;4.494;2023-07-16T13:07:38;6.70;;;1.58;;
21110;SDS011;10713;51.912;4.494;2023-07-16T13:10:03;11.10;;;1.83;;
21110;SDS011;10713;51.912;4.494;2023-07-16T13:12:29;6.13;;;1.45;;
21110;SDS011;10713;51.912;4.494;2023-07-16T13:14:54;5.70;;;1.48;;
21110;SDS011;10713;51.912;4.494;2023-07-16T13:17:20;7.57;;;1.52;;
21110;SDS011;10713;51.912;4.494;2023-07-16T13:19:45;3.08;;;1.23;;
21110;SDS011;10713;51.912;4.494;2023-07-16T13:22:12;5.70;;;1.50;;
21110;SDS011;10713;51.912;4.494;2023-07-16T13:24:38;4.28;;;1.20;;
21110;SDS011;10713;51.912;4.494;2023-07-16T13:27:04;4.68;;;1.40;;
21110;SDS011;10713;51.912;4.494;2023-07-16T13:29:29;5.85;;;1.42;;
21110;SDS011;10713;51.912;4.494;2023-07-16T13:31:54;7.68;;;1.20;;
21110;SDS011;10713;51.912;4.494;2023-07-16T13:34:20;6.28;;;1.42;;
21110;SDS011;10713;51.912;4.494;2023-07-16T13:36:45;6.47;;;1.52;;
21110;SDS011;10713;51.912;4.494;2023-07-16T13:39:10;6.10;;;1.75;;
21110;SDS011;10713;51.912;4.494;2023-07-16T13:41:38;7.57;;;1.52;;
21110;SDS011;10713;51.912;4.494;2023-07-16T13:44:03;6.70;;;1.23;;
21110;SDS011;10713;51.912;4.494;2023-07-16T13:46:29;7.72;;;1.58;;
21110;SDS011;10713;51.912;4.494;2023-07-16T13:48:54;5.93;;;1.77;;
21110;SDS011;10713;51.912;4.494;2023-07-16T13:51:20;7.37;;;1.67;;
21110;SDS011;10713;51.912;4.494;2023-07-16T13:53:45;8.38;;;1.95;;
21110;SDS011;10713;51.912;4.494;2023-07-16T13:56:10;5.82;;;1.55;;
21110;SDS011;10713;51.912;4.494;2023-07-16T13:58:36;7.90;;;1.52;;
21110;SDS011;10713;51.912;4.494;2023-07-16T14:01:01;5.65;;;1.73;;
21110;SDS011;10713;51.912;4.494;2023-07-16T14:03:26;5.25;;;1.90;;
21110;SDS011;10713;51.912;4.494;2023-07-16T14:05:52;11.82;;;2.13;;
21110;SDS011;10713;51.912;4.494;2023-07-16T14:08:17;6.13;;;1.92;;
21110;SDS011;10713;51.912;4.494;2023-07-16T14:10:42;5.20;;;1.65;;
21110;SDS011;10713;51.912;4.494;2023-07-16T14:13:08;9.15;;;2.00;;
21110;SDS011;10713;51.912;4.494;2023-07-16T14:15:33;5.68;;;1.75;;
21110;SDS011;10713;51.912;4.494;2023-07-16T14:17:59;5.78;;;1.52;;
21110;SDS011;10713;51.912;4.494;2023-07-16T14:20:24;12.77;;;1.60;;
21110;SDS011;10713;51.912;4.494;2023-07-16T14:22:49;9.65;;;1.40;;
21110;SDS011;10713;51.912;4.494;2023-07-16T14:25:15;7.22;;;2.00;;
21110;SDS011;10713;51.912;4.494;2023-07-16T14:27:40;6.32;;;2.13;;
21110;SDS011;10713;51.912;4.494;2023-07-16T14:30:06;9.07;;;1.75;;
21110;SDS011;10713;51.912;4.494;2023-07-16T14:32:33;5.53;;;1.80;;
21110;SDS011;10713;51.912;4.494;2023-07-16T14:34:59;5.68;;;1.40;;
21110;SDS011;10713;51.912;4.494;2023-07-16T14:37:25;7.90;;;1.48;;
21110;SDS011;10713;51.912;4.494;2023-07-16T14:39:50;5.68;;;1.90;;
21110;SDS011;10713;51.912;4.494;2023-07-16T14:42:16;7.38;;;1.60;;
21110;SDS011;10713;51.912;4.494;2023-07-16T14:44:41;5.17;;;1.60;;